createdAt,value
2023-03-24T00:02:25.029Z,26.40
2023-03-24T00:04:54.369Z,26.40
2023-03-24T00:07:25.292Z,26.40
2023-03-24T00:09:55.227Z,26.40
2023-03-24T00:12:24.143Z,26.50
2023-03-24T00:14:54.761Z,26.50
2023-03-24T00:17:25.648Z,26.60
2023-03-24T00:19:56.246Z,26.60
2023-03-24T00:22:24.320Z,26.70
2023-03-24T00:24:52.398Z,26.70
2023-03-24T00:27:21.477Z,26.80
2023-03-24T00:29:50.617Z,26.90
2023-03-24T00:32:18.702Z,26.90
2023-03-24T00:34:46.933Z,27.00
2023-03-24T00:37:15.129Z,27.00
2023-03-24T00:39:44.596Z,27.10
2023-03-24T00:42:30.900Z,27.20
2023-03-24T00:44:59.907Z,27.30
2023-03-24T00:47:27.998Z,27.40
2023-03-24T00:49:58.958Z,27.50
2023-03-24T00:52:47.769Z,27.50
2023-03-24T00:56:03.132Z,27.60
2023-03-24T00:58:34.769Z,27.70
2023-03-24T01:01:16.281Z,27.80
2023-03-24T01:03:53.544Z,28.00
2023-03-24T01:06:42.681Z,28.00
2023-03-24T01:09:14.142Z,28.10
2023-03-24T01:11:42.762Z,28.20
2023-03-24T01:14:26.178Z,28.20
2023-03-24T01:17:56.227Z,28.30
2023-03-24T01:20:37.920Z,28.50
2023-03-24T01:23:22.650Z,28.60
2023-03-24T01:25:52.530Z,28.70
2023-03-24T01:28:57.827Z,28.80
2023-03-24T01:31:38.726Z,28.90
2023-03-24T01:34:09.727Z,29.00
2023-03-24T01:36:38.304Z,29.20
2023-03-24T01:39:06.964Z,29.30
2023-03-24T01:42:08.040Z,29.40
2023-03-24T01:48:39.139Z,29.60
2023-03-24T01:51:25.651Z,29.70
2023-03-24T01:54:04.953Z,29.80
2023-03-24T01:56:41.029Z,29.90
2023-03-24T01:59:20.353Z,30.00
2023-03-24T02:01:49.050Z,30.10
2023-03-24T02:04:17.314Z,30.10
2023-03-24T02:06:46.699Z,30.20
2023-03-24T02:09:15.802Z,30.30
2023-03-24T02:15:11.497Z,30.30
2023-03-24T02:17:57.554Z,30.40
2023-03-24T02:21:05.847Z,30.50
2023-03-24T02:24:24.559Z,30.50
2023-03-24T02:27:04.586Z,30.60
2023-03-24T02:29:44.349Z,30.70
2023-03-24T02:33:16.909Z,30.80
2023-03-24T02:35:56.954Z,30.80
2023-03-24T02:38:43.328Z,30.90
2023-03-24T02:41:35.078Z,31.00
2023-03-24T02:44:39.650Z,31.10
2023-03-24T02:51:27.881Z,31.30
2023-03-24T02:55:03.302Z,31.40
2023-03-24T02:58:07.918Z,31.40
2023-03-24T03:01:38.474Z,31.50
2023-03-24T03:04:12.244Z,31.60
2023-03-24T03:06:44.975Z,31.70
2023-03-24T03:09:25.352Z,31.80
2023-03-24T03:12:23.188Z,31.90
2023-03-24T03:15:32.524Z,32.00
2023-03-24T03:18:33.522Z,32.10
2023-03-24T03:21:08.098Z,32.10
2023-03-24T03:23:40.312Z,32.20
2023-03-24T03:26:26.330Z,32.30
2023-03-24T03:29:00.615Z,32.30
2023-03-24T03:31:39.353Z,32.40
2023-03-24T03:34:33.683Z,32.40
2023-03-24T03:37:11.860Z,32.40
2023-03-24T03:40:12.020Z,32.50
2023-03-24T03:42:49.519Z,32.60
2023-03-24T03:45:21.407Z,32.80
2023-03-24T03:48:09.778Z,32.80
2023-03-24T03:50:39.683Z,32.90
2023-03-24T03:53:08.103Z,32.90
2023-03-24T03:55:38.463Z,33.00
2023-03-24T03:58:07.093Z,33.10
2023-03-24T04:00:37.481Z,33.10
2023-03-24T04:03:29.213Z,33.20
2023-03-24T04:06:30.388Z,33.20
2023-03-24T04:09:25.673Z,33.30
2023-03-24T04:12:03.359Z,33.30
2023-03-24T04:14:51.047Z,33.40
2023-03-24T04:17:26.725Z,33.50
2023-03-24T04:23:01.153Z,33.60
2023-03-24T04:25:29.529Z,33.70
2023-03-24T04:28:22.265Z,33.70
2023-03-24T04:31:10.049Z,33.70
2023-03-24T04:36:54.675Z,33.70
2023-03-24T04:39:28.799Z,33.80
2023-03-24T04:42:11.056Z,33.90
2023-03-24T04:44:43.216Z,34.10
2023-03-24T04:47:23.359Z,34.20
2023-03-24T04:49:51.622Z,34.30
2023-03-24T04:52:20.015Z,34.30
2023-03-24T04:54:51.836Z,34.40
2023-03-24T05:00:18.032Z,34.60
2023-03-24T05:03:20.656Z,34.80
2023-03-24T05:05:57.608Z,34.90
2023-03-24T05:08:29.277Z,34.90
2023-03-24T05:11:23.423Z,34.90
2023-03-24T05:13:55.550Z,34.90
2023-03-24T05:16:24.013Z,34.90
2023-03-24T05:18:58.346Z,34.90
2023-03-24T05:21:27.399Z,34.80
2023-03-24T05:23:55.753Z,34.80
2023-03-24T05:26:24.131Z,34.80
2023-03-24T05:28:52.797Z,34.80
2023-03-24T05:31:24.697Z,34.90
2023-03-24T05:33:53.140Z,34.90
2023-03-24T05:36:21.202Z,35.00
2023-03-24T05:38:49.663Z,35.10
2023-03-24T05:41:18.766Z,35.10
2023-03-24T05:43:51.361Z,35.20
2023-03-24T05:46:21.022Z,35.30
2023-03-24T05:48:52.402Z,35.30
2023-03-24T05:51:25.667Z,35.40
2023-03-24T05:53:58.357Z,35.40
2023-03-24T05:56:28.471Z,35.40
2023-03-24T05:58:56.633Z,35.40
2023-03-24T06:01:25.699Z,35.50
2023-03-24T06:03:54.174Z,35.50
2023-03-24T06:06:22.728Z,35.60
2023-03-24T06:09:04.965Z,35.60
2023-03-24T06:11:33.421Z,35.70
2023-03-24T06:14:01.584Z,35.70
2023-03-24T06:19:25.015Z,35.90
2023-03-24T06:21:56.195Z,36.00
2023-03-24T06:24:24.368Z,36.00
2023-03-24T06:26:52.436Z,36.00
2023-03-24T06:29:36.577Z,36.10
2023-03-24T06:35:11.919Z,36.20
2023-03-24T06:37:40.516Z,36.10
2023-03-24T06:40:15.407Z,36.20
2023-03-24T06:42:43.714Z,36.20
2023-03-24T06:45:13.632Z,36.20
2023-03-24T06:47:42.603Z,36.30
2023-03-24T06:50:11.308Z,36.30
2023-03-24T06:52:42.800Z,36.40
2023-03-24T06:55:25.485Z,36.40
2023-03-24T06:57:57.976Z,36.40
2023-03-24T07:00:30.593Z,36.60
2023-03-24T07:02:59.687Z,36.50
2023-03-24T07:05:27.947Z,36.50
2023-03-24T07:10:28.366Z,36.60
2023-03-24T07:13:03.556Z,36.70
2023-03-24T07:15:32.270Z,36.80
2023-03-24T07:18:01.079Z,36.80
2023-03-24T07:20:32.349Z,36.80
2023-03-24T07:23:01.238Z,36.90
2023-03-24T07:25:29.635Z,37.00
2023-03-24T07:28:03.370Z,37.00
2023-03-24T07:30:39.881Z,37.10
2023-03-24T07:33:32.695Z,37.20
2023-03-24T07:36:43.313Z,37.20
2023-03-24T07:39:17.280Z,37.20
2023-03-24T07:41:46.803Z,37.30
2023-03-24T07:44:17.801Z,37.30
2023-03-24T07:46:46.600Z,37.30
2023-03-24T07:49:19.515Z,37.30
2023-03-24T07:51:48.265Z,37.30
2023-03-24T07:54:20.282Z,37.30
2023-03-24T07:56:51.482Z,37.30
2023-03-24T07:59:20.427Z,37.40
2023-03-24T08:01:54.818Z,37.40
2023-03-24T08:04:27.693Z,37.40
2023-03-24T08:06:56.897Z,37.50
2023-03-24T08:09:28.289Z,37.50
2023-03-24T08:11:57.865Z,37.50
2023-03-24T08:14:27.101Z,37.40
2023-03-24T08:19:58.276Z,37.30
2023-03-24T08:22:38.646Z,37.30
2023-03-24T08:25:11.082Z,37.30
2023-03-24T08:27:58.688Z,37.20
2023-03-24T08:30:32.478Z,37.10
2023-03-24T08:39:14.855Z,37.00
2023-03-24T08:41:54.497Z,37.00
2023-03-24T08:44:25.245Z,37.00
2023-03-24T08:46:57.181Z,37.00
2023-03-24T08:49:26.310Z,37.00
2023-03-24T08:52:03.387Z,37.10
2023-03-24T08:54:35.514Z,37.10
2023-03-24T08:57:59.018Z,37.20
2023-03-24T09:00:36.989Z,37.30
2023-03-24T09:03:07.773Z,37.20
2023-03-24T09:05:44.569Z,37.20
2023-03-24T09:08:16.327Z,37.20
2023-03-24T09:10:56.254Z,37.20
2023-03-24T09:13:25.292Z,37.20
2023-03-24T09:15:58.609Z,37.10
2023-03-24T09:18:29.219Z,37.00
2023-03-24T09:20:57.551Z,37.00
2023-03-24T09:23:26.130Z,36.90
2023-03-24T09:25:54.898Z,37.00
2023-03-24T09:28:23.799Z,36.90
2023-03-24T09:31:18.194Z,36.90
2023-03-24T09:33:52.908Z,36.80
2023-03-24T09:36:27.208Z,36.70
2023-03-24T09:38:55.224Z,36.70
2023-03-24T09:44:06.226Z,36.70
2023-03-24T09:46:58.270Z,36.70
2023-03-24T09:49:33.731Z,36.60
2023-03-24T09:52:07.667Z,36.70
2023-03-24T09:54:51.029Z,36.70
2023-03-24T09:57:47.569Z,36.70
2023-03-24T10:00:24.539Z,36.60
2023-03-24T10:02:56.098Z,36.60
2023-03-24T10:06:09.340Z,36.60
2023-03-24T10:08:42.331Z,36.60
2023-03-24T10:11:38.750Z,36.50
2023-03-24T10:14:22.907Z,36.50
2023-03-24T10:17:15.393Z,36.40
2023-03-24T10:20:07.983Z,36.30
2023-03-24T10:22:53.650Z,36.30
2023-03-24T10:28:40.841Z,36.20
2023-03-24T10:31:15.779Z,36.10
2023-03-24T10:33:46.045Z,36.00
2023-03-24T10:36:18.860Z,36.00
2023-03-24T10:38:47.787Z,36.00
2023-03-24T10:41:29.071Z,35.90
2023-03-24T10:43:59.591Z,35.90
2023-03-24T10:46:36.764Z,35.80
2023-03-24T10:49:10.458Z,35.80
2023-03-24T10:51:40.229Z,35.80
2023-03-24T10:54:23.957Z,35.70
2023-03-24T10:57:19.410Z,35.70
2023-03-24T10:59:55.718Z,35.60
2023-03-24T11:02:31.870Z,35.60
2023-03-24T11:05:23.992Z,35.50
2023-03-24T11:07:54.044Z,35.50
2023-03-24T11:10:29.278Z,35.40
2023-03-24T11:12:58.884Z,35.40
2023-03-24T11:15:29.643Z,35.30
2023-03-24T11:18:05.076Z,35.30
2023-03-24T11:20:36.867Z,35.20
2023-03-24T11:23:17.048Z,35.20
2023-03-24T11:25:51.831Z,35.10
2023-03-24T11:28:27.092Z,35.00
2023-03-24T11:30:55.964Z,35.00
2023-03-24T11:33:36.383Z,34.90
2023-03-24T11:36:36.822Z,34.90
2023-03-24T11:39:22.541Z,34.80
2023-03-24T11:42:05.966Z,34.70
2023-03-24T11:44:48.720Z,34.70
2023-03-24T11:47:25.849Z,34.70
2023-03-24T11:50:14.007Z,34.60
2023-03-24T11:52:57.293Z,34.60
2023-03-24T11:56:19.193Z,34.60
2023-03-24T11:59:05.064Z,34.60
2023-03-24T12:01:47.764Z,34.60
2023-03-24T12:04:28.845Z,34.60
2023-03-24T12:07:20.871Z,34.50
2023-03-24T12:09:59.111Z,34.50
2023-03-24T12:13:01.453Z,34.40
2023-03-24T12:15:42.549Z,34.40
2023-03-24T12:18:35.796Z,34.30
2023-03-24T12:21:19.115Z,34.30
2023-03-24T12:24:00.147Z,34.20
2023-03-24T12:26:31.928Z,34.20
2023-03-24T12:29:35.912Z,34.10
2023-03-24T12:32:42.736Z,34.10
2023-03-24T12:35:18.193Z,34.00
2023-03-24T12:38:08.731Z,34.00
2023-03-24T12:40:55.300Z,34.00
2023-03-24T12:43:44.944Z,34.00
2023-03-24T12:46:40.630Z,33.90
2023-03-24T12:49:32.990Z,33.90
2023-03-24T12:52:19.382Z,33.90
2023-03-24T12:55:07.568Z,33.80
2023-03-24T12:58:10.599Z,33.80
2023-03-24T13:00:58.083Z,33.80
2023-03-24T13:03:41.603Z,33.80
2023-03-24T13:06:23.102Z,33.80
2023-03-24T13:09:15.114Z,33.80
2023-03-24T13:11:56.841Z,33.80
2023-03-24T13:14:31.920Z,33.80
2023-03-24T13:17:15.167Z,33.80
2023-03-24T13:19:44.788Z,33.70
2023-03-24T13:22:21.154Z,33.70
2023-03-24T13:24:49.788Z,33.60
2023-03-24T13:27:36.846Z,33.60
2023-03-24T13:30:17.762Z,33.60
2023-03-24T13:33:01.746Z,33.50
2023-03-24T13:35:43.061Z,33.50
2023-03-24T13:38:43.880Z,33.50
2023-03-24T13:41:30.951Z,33.40
2023-03-24T13:44:03.821Z,33.30
2023-03-24T13:46:32.993Z,33.30
2023-03-24T13:49:02.171Z,33.30
2023-03-24T13:51:41.633Z,33.30
2023-03-24T13:54:26.856Z,33.30
2023-03-24T13:56:54.956Z,33.20
2023-03-24T13:59:26.183Z,33.20
2023-03-24T14:02:23.625Z,33.10
2023-03-24T14:05:10.807Z,33.10
2023-03-24T14:07:42.040Z,33.10
2023-03-24T14:10:37.610Z,33.10
2023-03-24T14:13:12.937Z,33.00
2023-03-24T14:15:54.867Z,33.00
2023-03-24T14:18:27.190Z,33.00
2023-03-24T14:20:58.446Z,32.90
2023-03-24T14:23:58.437Z,32.90
2023-03-24T14:26:26.957Z,32.90
2023-03-24T14:28:57.557Z,32.90
2023-03-24T14:31:33.510Z,32.90
2023-03-24T14:34:05.992Z,32.80
2023-03-24T14:36:40.943Z,32.80
2023-03-24T14:39:18.009Z,32.80
2023-03-24T14:41:52.119Z,32.80
2023-03-24T14:44:49.670Z,32.80
2023-03-24T14:47:23.821Z,32.80
2023-03-24T14:49:59.614Z,32.80
2023-03-24T14:52:41.338Z,32.70
2023-03-24T14:55:16.774Z,32.70
2023-03-24T14:57:48.642Z,32.70
2023-03-24T15:00:23.158Z,32.70
2023-03-24T15:03:01.045Z,32.60
2023-03-24T15:05:32.493Z,32.50
2023-03-24T15:08:07.835Z,32.60
2023-03-24T15:10:44.950Z,32.50
2023-03-24T15:13:37.572Z,32.50
2023-03-24T15:16:31.526Z,32.40
2023-03-24T15:19:12.256Z,32.40
2023-03-24T15:21:47.100Z,32.30
2023-03-24T15:24:38.832Z,32.30
2023-03-24T15:27:12.072Z,32.20
2023-03-24T15:29:42.203Z,32.20
2023-03-24T15:32:33.155Z,32.20
2023-03-24T15:35:06.019Z,32.10
2023-03-24T15:37:36.747Z,32.10
2023-03-24T15:40:15.692Z,32.10
2023-03-24T15:42:46.660Z,32.10
2023-03-24T15:45:44.625Z,32.00
2023-03-24T15:48:17.004Z,32.00
2023-03-24T15:51:06.911Z,31.90
2023-03-24T15:53:40.599Z,31.90
2023-03-24T15:56:27.091Z,31.90
2023-03-24T15:59:14.086Z,31.90
2023-03-24T16:01:45.169Z,31.80
2023-03-24T16:04:18.570Z,31.80
2023-03-24T16:06:53.645Z,31.80
2023-03-24T16:09:27.527Z,31.80
2023-03-24T16:11:56.297Z,31.80
2023-03-24T16:14:25.619Z,31.70
2023-03-24T16:17:00.010Z,31.70
2023-03-24T16:19:28.847Z,31.70
2023-03-24T16:21:57.139Z,31.70
2023-03-24T16:24:26.180Z,31.70
2023-03-24T16:26:55.087Z,31.70
2023-03-24T16:29:27.458Z,31.70
2023-03-24T16:31:57.555Z,31.70
2023-03-24T16:34:25.792Z,31.60
2023-03-24T16:36:55.140Z,31.60
2023-03-24T16:39:28.921Z,31.60
2023-03-24T16:41:57.457Z,31.60
2023-03-24T16:44:26.100Z,31.60
2023-03-24T16:46:56.207Z,31.60
2023-03-24T16:49:25.168Z,31.60
2023-03-24T16:51:54.068Z,31.60
2023-03-24T16:54:22.326Z,31.50
2023-03-24T16:56:51.374Z,31.50
2023-03-24T16:59:20.000Z,31.50
2023-03-24T17:01:48.341Z,31.30
2023-03-24T17:04:19.574Z,31.30
2023-03-24T17:06:55.576Z,31.20
2023-03-24T17:09:24.159Z,31.10
2023-03-24T17:11:54.597Z,31.00
2023-03-24T17:14:23.788Z,31.00
2023-03-24T17:16:53.456Z,30.90
2023-03-24T17:19:23.729Z,30.90
2023-03-24T17:22:11.889Z,30.90
2023-03-24T17:24:42.487Z,30.90
2023-03-24T17:27:19.027Z,30.90
2023-03-24T17:29:47.589Z,30.80
2023-03-24T17:32:16.179Z,30.70
2023-03-24T17:34:48.593Z,30.70
2023-03-24T17:37:17.600Z,30.70
2023-03-24T17:39:46.422Z,30.60
2023-03-24T17:42:14.711Z,30.60
2023-03-24T17:44:42.876Z,30.50
2023-03-24T17:47:11.106Z,30.50
2023-03-24T17:49:39.272Z,30.50
2023-03-24T17:52:07.507Z,30.40
2023-03-24T17:54:36.363Z,30.40
2023-03-24T17:57:04.481Z,30.30
2023-03-24T17:59:33.909Z,30.30
2023-03-24T18:02:01.960Z,30.20
2023-03-24T18:04:30.310Z,30.10
2023-03-24T18:07:00.457Z,30.10
2023-03-24T18:09:28.846Z,30.00
2023-03-24T18:11:58.888Z,30.00
2023-03-24T18:14:28.166Z,30.00
2023-03-24T18:16:56.280Z,29.90
2023-03-24T18:19:24.682Z,29.90
2023-03-24T18:21:53.556Z,29.90
2023-03-24T18:24:21.605Z,29.80
2023-03-24T18:26:50.434Z,29.70
2023-03-24T18:29:22.993Z,29.70
2023-03-24T18:31:52.449Z,29.60
2023-03-24T18:34:23.294Z,29.60
2023-03-24T18:36:51.696Z,29.50
2023-03-24T18:39:19.792Z,29.50
2023-03-24T18:41:48.340Z,29.50
2023-03-24T18:44:17.770Z,29.40
2023-03-24T18:46:46.769Z,29.30
2023-03-24T18:49:15.557Z,29.30
2023-03-24T18:51:45.405Z,29.30
2023-03-24T18:54:13.606Z,29.20
2023-03-24T18:56:41.993Z,29.20
2023-03-24T18:59:11.873Z,29.10
2023-03-24T19:01:41.122Z,29.10
2023-03-24T19:04:09.644Z,29.10
2023-03-24T19:06:42.755Z,29.10
2023-03-24T19:09:13.776Z,29.10
2023-03-24T19:11:43.617Z,29.00
2023-03-24T19:14:11.230Z,29.00
2023-03-24T19:16:39.483Z,29.10
2023-03-24T19:19:08.997Z,29.10
2023-03-24T19:21:38.139Z,29.10
2023-03-24T19:24:06.645Z,29.10
2023-03-24T19:26:34.632Z,29.20
2023-03-24T19:29:02.764Z,29.20
2023-03-24T19:31:30.940Z,29.20
2023-03-24T19:33:59.885Z,29.20
2023-03-24T19:36:28.320Z,29.20
2023-03-24T19:38:57.823Z,29.20
2023-03-24T19:41:27.474Z,29.20
2023-03-24T19:43:56.463Z,29.20
2023-03-24T19:46:24.769Z,29.10
2023-03-24T19:48:52.944Z,29.10
2023-03-24T19:51:21.807Z,29.00
2023-03-24T19:53:49.928Z,29.10
2023-03-24T19:56:20.718Z,29.00
2023-03-24T19:58:49.737Z,29.00
2023-03-24T20:01:18.274Z,29.00
2023-03-24T20:03:46.644Z,28.90
2023-03-24T20:06:15.864Z,28.90
2023-03-24T20:08:45.538Z,28.90
2023-03-24T20:11:13.671Z,28.90
2023-03-24T20:13:41.935Z,28.90
2023-03-24T20:16:10.940Z,28.80
2023-03-24T20:18:40.185Z,28.80
2023-03-24T20:21:09.470Z,28.80
2023-03-24T20:23:38.583Z,28.90
2023-03-24T20:26:06.967Z,28.90
2023-03-24T20:28:35.845Z,28.90
2023-03-24T20:31:04.637Z,28.90
2023-03-24T20:33:32.755Z,28.90
2023-03-24T20:36:01.277Z,28.90
2023-03-24T20:38:29.666Z,28.90
2023-03-24T20:41:08.136Z,28.90
2023-03-24T20:43:37.974Z,28.80
2023-03-24T20:46:08.589Z,28.80
2023-03-24T20:48:37.591Z,28.70
2023-03-24T20:51:06.046Z,28.60
2023-03-24T20:53:36.686Z,28.60
2023-03-24T20:56:07.834Z,28.50
2023-03-24T20:58:39.132Z,28.50
2023-03-24T21:01:09.595Z,28.50
2023-03-24T21:03:37.801Z,28.50
2023-03-24T21:06:07.113Z,28.50
2023-03-24T21:08:35.120Z,28.50
2023-03-24T21:11:03.153Z,28.40
2023-03-24T21:13:37.368Z,28.40
2023-03-24T21:16:11.283Z,28.50
2023-03-24T21:18:43.741Z,28.50
2023-03-24T21:21:12.960Z,28.50
2023-03-24T21:23:42.482Z,28.50
2023-03-24T21:26:15.458Z,28.60
2023-03-24T21:28:43.796Z,28.60
2023-03-24T21:31:26.755Z,28.60
2023-03-24T21:33:56.593Z,28.60
2023-03-24T21:36:31.656Z,28.60
2023-03-24T21:38:59.847Z,28.60
2023-03-24T21:41:29.066Z,28.60
2023-03-24T21:44:00.917Z,28.60
2023-03-24T21:46:32.297Z,28.60
2023-03-24T21:49:01.213Z,28.50
2023-03-24T21:51:35.038Z,28.50
2023-03-24T21:54:06.934Z,28.50
2023-03-24T21:56:38.253Z,28.60
2023-03-24T21:59:07.397Z,28.50
2023-03-24T22:01:36.499Z,28.50
2023-03-24T22:04:06.793Z,28.50
2023-03-24T22:06:39.085Z,28.50
2023-03-24T22:09:08.420Z,28.50
2023-03-24T22:11:38.299Z,28.40
2023-03-24T22:14:07.178Z,28.40
2023-03-24T22:16:35.551Z,28.40
2023-03-24T22:19:03.726Z,28.40
2023-03-24T22:21:32.625Z,28.30
2023-03-24T22:24:00.933Z,28.30
2023-03-24T22:26:29.149Z,28.20
2023-03-24T22:28:57.457Z,28.20
2023-03-24T22:31:25.669Z,28.10
2023-03-24T22:33:54.872Z,28.00
2023-03-24T22:36:22.922Z,27.90
2023-03-24T22:38:51.300Z,27.80
2023-03-24T22:41:19.326Z,27.80
2023-03-24T22:43:47.361Z,27.70
2023-03-24T22:46:15.833Z,27.70
2023-03-24T22:48:44.033Z,27.60
2023-03-24T22:51:17.252Z,27.60
2023-03-24T22:53:48.601Z,27.50
2023-03-24T22:56:16.829Z,27.50
2023-03-24T22:58:45.001Z,27.50
2023-03-24T23:01:13.241Z,27.40
2023-03-24T23:03:42.098Z,27.40
2023-03-24T23:06:12.202Z,27.40
2023-03-24T23:08:40.388Z,27.30
2023-03-24T23:11:08.530Z,27.30
2023-03-24T23:13:36.495Z,27.30
2023-03-24T23:16:06.042Z,27.30
2023-03-24T23:18:34.847Z,27.30
2023-03-24T23:21:09.492Z,27.30
2023-03-24T23:23:39.345Z,27.30
2023-03-24T23:26:26.123Z,27.30
2023-03-24T23:28:57.184Z,27.20
2023-03-24T23:31:27.743Z,27.20
2023-03-24T23:33:57.863Z,27.20
2023-03-24T23:36:28.733Z,27.10
2023-03-24T23:38:57.649Z,27.10
2023-03-24T23:41:25.817Z,27.10
2023-03-24T23:43:55.335Z,27.10
2023-03-24T23:46:25.368Z,27.10
2023-03-24T23:48:53.348Z,27.10
2023-03-24T23:51:22.349Z,27.10
2023-03-24T23:53:51.857Z,27.10
2023-03-24T23:56:22.536Z,27.10
2023-03-24T23:58:50.488Z,27.20
